createdAt,value
2023-03-03T00:00:32.543Z,99096.00
2023-03-03T00:03:07.620Z,99120.00
2023-03-03T00:05:34.784Z,99115.00
2023-03-03T00:08:08.598Z,99107.00
2023-03-03T00:10:35.612Z,99107.00
2023-03-03T00:13:09.539Z,99104.00
2023-03-03T00:15:36.557Z,99101.00
2023-03-03T00:18:13.534Z,99118.00
2023-03-03T00:20:47.619Z,99103.00
2023-03-03T00:23:30.468Z,99109.00
2023-03-03T00:26:04.554Z,99107.00
2023-03-03T00:28:41.438Z,99110.00
2023-03-03T00:31:37.588Z,99098.00
2023-03-03T00:34:27.488Z,99094.00
2023-03-03T00:37:04.580Z,99072.00
2023-03-03T00:39:38.680Z,99087.00
2023-03-03T00:42:22.590Z,99080.00
2023-03-03T00:44:59.186Z,99053.00
2023-03-03T00:47:44.604Z,99071.00
2023-03-03T00:50:11.548Z,99065.00
2023-03-03T00:52:47.600Z,99061.00
2023-03-03T00:55:14.637Z,99073.00
2023-03-03T00:57:48.569Z,99065.00
2023-03-03T01:00:22.645Z,99071.00
2023-03-03T01:02:49.592Z,99036.00
2023-03-03T01:05:23.628Z,99069.00
2023-03-03T01:07:56.581Z,99068.00
2023-03-03T01:10:23.624Z,99075.00
2023-03-03T01:12:56.609Z,99058.00
2023-03-03T01:15:30.634Z,99073.00
2023-03-03T01:17:57.716Z,99080.00
2023-03-03T01:20:31.611Z,99073.00
2023-03-03T01:23:05.587Z,99073.00
2023-03-03T01:25:38.569Z,99069.00
2023-03-03T01:28:05.593Z,99059.00
2023-03-03T01:30:32.848Z,99081.00
2023-03-03T01:33:06.624Z,99066.00
2023-03-03T01:35:33.689Z,99058.00
2023-03-03T01:38:07.630Z,99050.00
2023-03-03T01:40:40.581Z,99061.00
2023-03-03T01:43:07.669Z,99060.00
2023-03-03T01:45:54.628Z,99056.00
2023-03-03T01:48:49.645Z,99058.00
2023-03-03T01:51:39.601Z,99041.00
2023-03-03T01:54:22.077Z,99015.00
2023-03-03T01:56:56.624Z,99050.00
2023-03-03T01:59:31.427Z,99024.00
2023-03-03T02:02:04.710Z,99036.00
2023-03-03T02:04:31.865Z,99038.00
2023-03-03T02:07:01.427Z,99034.00
2023-03-03T02:10:06.735Z,99035.00
2023-03-03T02:12:48.662Z,99034.00
2023-03-03T02:15:25.380Z,99021.00
2023-03-03T02:18:03.684Z,99030.00
2023-03-03T02:21:07.116Z,99026.00
2023-03-03T02:23:40.651Z,99025.00
2023-03-03T02:26:22.605Z,99021.00
2023-03-03T02:28:56.613Z,99010.00
2023-03-03T02:31:27.182Z,99017.00
2023-03-03T02:34:00.687Z,99011.00
2023-03-03T02:36:31.088Z,99009.00
2023-03-03T02:39:46.668Z,99015.00
2023-03-03T02:42:20.539Z,98987.00
2023-03-03T02:44:53.663Z,99009.00
2023-03-03T02:47:20.751Z,98997.00
2023-03-03T02:49:54.708Z,98994.00
2023-03-03T02:52:28.621Z,98983.00
2023-03-03T02:55:01.629Z,98994.00
2023-03-03T02:57:34.649Z,98969.00
2023-03-03T03:00:01.674Z,98992.00
2023-03-03T03:02:34.634Z,98995.00
2023-03-03T03:05:01.603Z,98984.00
2023-03-03T03:07:34.698Z,98967.00
2023-03-03T03:10:07.677Z,98968.00
2023-03-03T03:12:41.664Z,98970.00
2023-03-03T03:15:09.081Z,98981.00
2023-03-03T03:17:44.673Z,98972.00
2023-03-03T03:20:12.262Z,98967.00
2023-03-03T03:22:45.708Z,98967.00
2023-03-03T03:25:19.688Z,98972.00
2023-03-03T03:27:46.676Z,98979.00
2023-03-03T03:30:20.696Z,98968.00
2023-03-03T03:32:47.722Z,98976.00
2023-03-03T03:35:14.817Z,98973.00
2023-03-03T03:37:48.640Z,98955.00
2023-03-03T03:40:15.631Z,98957.00
2023-03-03T03:42:48.664Z,98966.00
2023-03-03T03:45:15.752Z,98953.00
2023-03-03T03:47:49.732Z,98954.00
2023-03-03T03:50:16.764Z,98966.00
2023-03-03T03:52:50.656Z,98964.00
2023-03-03T03:55:17.851Z,98956.00
2023-03-03T03:57:51.713Z,98968.00
2023-03-03T04:00:18.957Z,98964.00
2023-03-03T04:02:58.730Z,98966.00
2023-03-03T04:05:25.747Z,98934.00
2023-03-03T04:07:52.757Z,98952.00
2023-03-03T04:10:26.782Z,98952.00
2023-03-03T04:12:53.724Z,98913.00
2023-03-03T04:15:27.741Z,98953.00
2023-03-03T04:18:01.737Z,98951.00
2023-03-03T04:20:35.678Z,98934.00
2023-03-03T04:23:02.645Z,98946.00
2023-03-03T04:25:35.684Z,98946.00
2023-03-03T04:28:04.595Z,98919.00
2023-03-03T04:30:38.716Z,98942.00
2023-03-03T04:33:11.778Z,98938.00
2023-03-03T04:35:45.741Z,98937.00
2023-03-03T04:38:12.750Z,98931.00
2023-03-03T04:40:41.730Z,98921.00
2023-03-03T04:43:16.734Z,98942.00
2023-03-03T04:45:43.939Z,98929.00
2023-03-03T04:48:17.743Z,98937.00
2023-03-03T04:50:44.694Z,98932.00
2023-03-03T04:53:17.795Z,98938.00
2023-03-03T04:55:44.815Z,98933.00
2023-03-03T04:58:18.788Z,98929.00
2023-03-03T05:00:52.911Z,98932.00
2023-03-03T05:03:26.743Z,98939.00
2023-03-03T05:05:53.839Z,98912.00
2023-03-03T05:08:27.751Z,98923.00
2023-03-03T05:10:54.992Z,98924.00
2023-03-03T05:13:28.738Z,98941.00
2023-03-03T05:15:56.168Z,98919.00
2023-03-03T05:18:30.699Z,98939.00
2023-03-03T05:20:57.623Z,98933.00
2023-03-03T05:23:30.736Z,98927.00
2023-03-03T05:25:57.737Z,98935.00
2023-03-03T05:28:31.707Z,98934.00
2023-03-03T05:30:58.673Z,98928.00
2023-03-03T05:33:31.774Z,98907.00
2023-03-03T05:35:58.749Z,98915.00
2023-03-03T05:38:25.846Z,98905.00
2023-03-03T05:40:59.733Z,98913.00
2023-03-03T05:43:26.718Z,98895.00
2023-03-03T05:45:57.346Z,98911.00
2023-03-03T05:48:30.723Z,98928.00
2023-03-03T05:51:07.746Z,98923.00
2023-03-03T05:53:34.760Z,98919.00
2023-03-03T05:56:07.681Z,98914.00
2023-03-03T05:58:34.699Z,98920.00
2023-03-03T06:01:07.742Z,98922.00
2023-03-03T06:03:34.737Z,98936.00
2023-03-03T06:06:07.753Z,98915.00
2023-03-03T06:08:41.767Z,98928.00
2023-03-03T06:11:14.705Z,98927.00
2023-03-03T06:13:41.639Z,98938.00
2023-03-03T06:16:15.807Z,98938.00
2023-03-03T06:18:49.780Z,98938.00
2023-03-03T06:21:16.805Z,98940.00
2023-03-03T06:23:50.744Z,98912.00
2023-03-03T06:26:17.704Z,98937.00
2023-03-03T06:28:50.704Z,98919.00
2023-03-03T06:31:17.707Z,98939.00
2023-03-03T06:33:50.748Z,98932.00
2023-03-03T06:36:18.497Z,98939.00
2023-03-03T06:38:51.939Z,98943.00
2023-03-03T06:41:18.984Z,98935.00
2023-03-03T06:43:52.723Z,98934.00
2023-03-03T06:46:25.720Z,98944.00
2023-03-03T06:48:53.046Z,98956.00
2023-03-03T06:51:25.560Z,98955.00
2023-03-03T06:54:01.753Z,98949.00
2023-03-03T06:56:35.756Z,98946.00
2023-03-03T06:59:08.782Z,98959.00
2023-03-03T07:01:43.770Z,98952.00
2023-03-03T07:04:33.959Z,98962.00
2023-03-03T07:07:27.787Z,98951.00
2023-03-03T07:09:56.328Z,98962.00
2023-03-03T07:12:35.750Z,98949.00
2023-03-03T07:15:19.978Z,98956.00
2023-03-03T07:17:59.849Z,98967.00
2023-03-03T07:20:35.420Z,98968.00
2023-03-03T07:23:27.771Z,98953.00
2023-03-03T07:26:00.814Z,98943.00
2023-03-03T07:28:29.704Z,98960.00
2023-03-03T07:31:03.803Z,98960.00
2023-03-03T07:33:35.964Z,98966.00
2023-03-03T07:36:03.486Z,98962.00
2023-03-03T07:38:48.785Z,98954.00
2023-03-03T07:41:18.901Z,98964.00
2023-03-03T07:44:03.067Z,98953.00
2023-03-03T07:46:46.806Z,98961.00
2023-03-03T07:49:34.402Z,98957.00
2023-03-03T07:52:08.796Z,98960.00
2023-03-03T07:54:46.756Z,98953.00
2023-03-03T07:57:23.148Z,98957.00
2023-03-03T08:00:22.874Z,98962.00
2023-03-03T08:03:03.391Z,98957.00
2023-03-03T08:06:16.879Z,98959.00
2023-03-03T08:08:43.885Z,98962.00
2023-03-03T08:11:17.828Z,98956.00
2023-03-03T08:13:44.876Z,98958.00
2023-03-03T08:16:11.845Z,98975.00
2023-03-03T08:18:55.815Z,98978.00
2023-03-03T08:21:24.209Z,98977.00
2023-03-03T08:23:51.538Z,98975.00
2023-03-03T08:26:26.816Z,98973.00
2023-03-03T08:28:54.216Z,98976.00
2023-03-03T08:31:40.253Z,98966.00
2023-03-03T08:34:08.026Z,98961.00
2023-03-03T08:36:41.872Z,98977.00
2023-03-03T08:39:08.768Z,98975.00
2023-03-03T08:41:41.855Z,98975.00
2023-03-03T08:44:08.855Z,98976.00
2023-03-03T08:46:36.028Z,98973.00
2023-03-03T08:49:09.834Z,98978.00
2023-03-03T08:51:42.835Z,98974.00
2023-03-03T08:54:09.789Z,98970.00
2023-03-03T08:56:42.916Z,98976.00
2023-03-03T08:59:09.857Z,98960.00
2023-03-03T09:01:42.810Z,98967.00
2023-03-03T09:04:09.904Z,98984.00
2023-03-03T09:06:43.838Z,98985.00
2023-03-03T09:09:10.786Z,98976.00
2023-03-03T09:11:43.824Z,98979.00
2023-03-03T09:14:18.389Z,98980.00
2023-03-03T09:16:59.896Z,98978.00
2023-03-03T09:19:32.312Z,98981.00
2023-03-03T09:22:27.862Z,98988.00
2023-03-03T09:24:57.762Z,98990.00
2023-03-03T09:27:40.876Z,98970.00
2023-03-03T09:30:40.226Z,98964.00
2023-03-03T09:33:44.943Z,98983.00
2023-03-03T09:36:38.590Z,98989.00
2023-03-03T09:39:24.934Z,98983.00
2023-03-03T09:42:37.737Z,98986.00
2023-03-03T09:45:41.916Z,98988.00
2023-03-03T09:48:35.987Z,98993.00
2023-03-03T09:51:47.903Z,98994.00
2023-03-03T09:54:57.900Z,98990.00
2023-03-03T09:58:08.104Z,98992.00
2023-03-03T10:01:29.885Z,99005.00
2023-03-03T10:04:33.888Z,99004.00
2023-03-03T10:07:55.276Z,98997.00
2023-03-03T10:10:38.962Z,98989.00
2023-03-03T10:13:56.930Z,98992.00
2023-03-03T10:17:10.891Z,99006.00
2023-03-03T10:20:00.412Z,98982.00
2023-03-03T10:23:10.865Z,98988.00
2023-03-03T10:26:34.680Z,98992.00
2023-03-03T10:29:36.916Z,99003.00
2023-03-03T10:32:06.668Z,98994.00
2023-03-03T10:35:07.941Z,99000.00
2023-03-03T10:38:07.618Z,99001.00
2023-03-03T10:40:49.912Z,98979.00
2023-03-03T10:44:02.013Z,98994.00
2023-03-03T10:46:52.968Z,98996.00
2023-03-03T10:49:30.796Z,98989.00
2023-03-03T10:53:01.104Z,99000.00
2023-03-03T10:56:03.114Z,99005.00
2023-03-03T10:58:53.071Z,99006.00
2023-03-03T11:02:07.978Z,99003.00
2023-03-03T11:05:10.986Z,99001.00
2023-03-03T11:08:05.394Z,99002.00
2023-03-03T11:10:48.960Z,98995.00
2023-03-03T11:13:32.695Z,98996.00
2023-03-03T11:16:42.956Z,98984.00
2023-03-03T11:20:07.024Z,98975.00
2023-03-03T11:22:57.910Z,98969.00
2023-03-03T11:25:40.980Z,98979.00
2023-03-03T11:28:44.839Z,98944.00
2023-03-03T11:31:32.961Z,98969.00
2023-03-03T11:34:47.841Z,98968.00
2023-03-03T11:37:31.063Z,98950.00
2023-03-03T11:40:07.956Z,98954.00
2023-03-03T11:42:47.913Z,98959.00
2023-03-03T11:45:25.996Z,98967.00
2023-03-03T11:48:25.051Z,98955.00
2023-03-03T11:51:07.022Z,98954.00
2023-03-03T11:53:49.338Z,98962.00
2023-03-03T11:56:39.016Z,98950.00
2023-03-03T11:59:38.896Z,98951.00
2023-03-03T12:02:35.084Z,98953.00
2023-03-03T12:05:39.108Z,98952.00
2023-03-03T12:08:40.007Z,98948.00
2023-03-03T12:11:25.216Z,98948.00
2023-03-03T12:14:24.028Z,98922.00
2023-03-03T12:17:04.361Z,98932.00
2023-03-03T12:20:28.000Z,98932.00
2023-03-03T12:23:24.378Z,98926.00
2023-03-03T12:26:24.958Z,98916.00
2023-03-03T12:29:05.217Z,98930.00
2023-03-03T12:31:50.972Z,98916.00
2023-03-03T12:35:05.793Z,98915.00
2023-03-03T12:38:03.016Z,98918.00
2023-03-03T12:40:35.555Z,98908.00
2023-03-03T12:43:47.022Z,98910.00
2023-03-03T12:46:29.390Z,98913.00
2023-03-03T12:49:02.993Z,98895.00
2023-03-03T12:52:03.990Z,98906.00
2023-03-03T12:54:51.120Z,98905.00
2023-03-03T12:57:43.014Z,98888.00
2023-03-03T13:00:37.003Z,98893.00
2023-03-03T13:03:21.752Z,98886.00
2023-03-03T13:06:08.022Z,98895.00
2023-03-03T13:08:57.021Z,98886.00
2023-03-03T13:12:15.003Z,98892.00
2023-03-03T13:15:55.158Z,98893.00
2023-03-03T13:18:30.656Z,98895.00
2023-03-03T13:21:20.967Z,98897.00
2023-03-03T13:24:07.898Z,98886.00
2023-03-03T13:26:49.957Z,98896.00
2023-03-03T13:29:29.950Z,98896.00
2023-03-03T13:32:03.297Z,98886.00
2023-03-03T13:35:11.072Z,98882.00
2023-03-03T13:37:48.985Z,98877.00
2023-03-03T13:40:39.578Z,98888.00
2023-03-03T13:43:47.983Z,98880.00
2023-03-03T13:46:54.470Z,98879.00
2023-03-03T13:49:55.070Z,98884.00
2023-03-03T13:52:29.850Z,98873.00
2023-03-03T13:55:51.039Z,98876.00
2023-03-03T13:58:55.386Z,98877.00
2023-03-03T14:01:49.016Z,98874.00
2023-03-03T14:04:32.144Z,98874.00
2023-03-03T14:07:28.100Z,98870.00
2023-03-03T14:10:24.075Z,98860.00
2023-03-03T14:13:18.977Z,98875.00
2023-03-03T14:16:07.474Z,98875.00
2023-03-03T14:19:05.024Z,98870.00
2023-03-03T14:21:41.359Z,98857.00
2023-03-03T14:24:25.048Z,98853.00
2023-03-03T14:27:01.103Z,98857.00
2023-03-03T14:29:34.014Z,98842.00
2023-03-03T14:32:45.081Z,98842.00
2023-03-03T14:35:27.105Z,98858.00
2023-03-03T14:37:53.978Z,98846.00
2023-03-03T14:40:38.037Z,98844.00
2023-03-03T14:43:33.421Z,98843.00
2023-03-03T14:46:34.019Z,98854.00
2023-03-03T14:49:44.997Z,98854.00
2023-03-03T14:52:26.062Z,98844.00
2023-03-03T14:54:55.743Z,98848.00
2023-03-03T14:57:42.009Z,98850.00
2023-03-03T15:00:15.062Z,98855.00
2023-03-03T15:03:10.006Z,98856.00
2023-03-03T15:05:37.107Z,98847.00
2023-03-03T15:08:03.978Z,98852.00
2023-03-03T15:10:45.025Z,98853.00
2023-03-03T15:13:27.023Z,98857.00
2023-03-03T15:16:24.057Z,98847.00
2023-03-03T15:19:24.145Z,98854.00
2023-03-03T15:22:29.003Z,98853.00
2023-03-03T15:25:25.657Z,98848.00
2023-03-03T15:28:43.037Z,98850.00
2023-03-03T15:31:47.701Z,98858.00
2023-03-03T15:34:51.076Z,98858.00
2023-03-03T15:37:49.077Z,98855.00
2023-03-03T15:40:35.106Z,98848.00
2023-03-03T15:43:39.074Z,98862.00
2023-03-03T15:46:32.251Z,98860.00
2023-03-03T15:49:58.026Z,98864.00
2023-03-03T15:52:39.845Z,98862.00
2023-03-03T15:55:23.054Z,98865.00
2023-03-03T15:58:53.309Z,98866.00
2023-03-03T16:01:41.209Z,98856.00
2023-03-03T16:04:18.809Z,98869.00
2023-03-03T16:07:26.094Z,98871.00
2023-03-03T16:09:57.024Z,98871.00
2023-03-03T16:12:58.083Z,98871.00
2023-03-03T16:15:55.369Z,98867.00
2023-03-03T16:18:35.089Z,98883.00
2023-03-03T16:21:08.268Z,98883.00
2023-03-03T16:23:59.122Z,98872.00
2023-03-03T16:27:10.115Z,98880.00
2023-03-03T16:29:46.242Z,98889.00
2023-03-03T16:32:51.099Z,98892.00
2023-03-03T16:35:25.462Z,98881.00
2023-03-03T16:38:09.099Z,98871.00
2023-03-03T16:40:57.150Z,98893.00
2023-03-03T16:44:20.317Z,98905.00
2023-03-03T16:46:49.151Z,98884.00
2023-03-03T16:49:36.206Z,98904.00
2023-03-03T16:52:32.277Z,98895.00
2023-03-03T16:55:05.260Z,98897.00
2023-03-03T16:57:50.206Z,98909.00
2023-03-03T17:00:27.074Z,98913.00
2023-03-03T17:03:09.172Z,98917.00
2023-03-03T17:05:41.843Z,98917.00
2023-03-03T17:08:48.125Z,98908.00
2023-03-03T17:11:36.503Z,98926.00
2023-03-03T17:14:34.411Z,98917.00
2023-03-03T17:17:35.186Z,98934.00
2023-03-03T17:20:27.440Z,98941.00
2023-03-03T17:23:35.132Z,98950.00
2023-03-03T17:26:33.048Z,98946.00
2023-03-03T17:29:18.156Z,98960.00
2023-03-03T17:31:51.442Z,98961.00
2023-03-03T17:34:44.132Z,98957.00
2023-03-03T17:37:51.227Z,98955.00
2023-03-03T17:40:28.104Z,98966.00
2023-03-03T17:43:10.421Z,98960.00
2023-03-03T17:45:47.183Z,98943.00
2023-03-03T17:48:38.709Z,98945.00
2023-03-03T17:51:15.178Z,98971.00
2023-03-03T17:54:18.241Z,98963.00
2023-03-03T17:57:25.176Z,98975.00
2023-03-03T18:00:10.175Z,98972.00
2023-03-03T18:03:15.269Z,98988.00
2023-03-03T18:06:19.702Z,98986.00
2023-03-03T18:09:13.642Z,98989.00
2023-03-03T18:12:20.413Z,99001.00
2023-03-03T18:15:04.251Z,98994.00
2023-03-03T18:17:51.333Z,99005.00
2023-03-03T18:20:48.769Z,98989.00
2023-03-03T18:23:50.222Z,98998.00
2023-03-03T18:26:38.310Z,99002.00
2023-03-03T18:29:29.273Z,99004.00
2023-03-03T18:32:06.350Z,99014.00
2023-03-03T18:34:41.050Z,99019.00
2023-03-03T18:37:37.164Z,99022.00
2023-03-03T18:40:04.040Z,99026.00
2023-03-03T18:42:51.188Z,99033.00
2023-03-03T18:45:21.284Z,99019.00
2023-03-03T18:48:20.363Z,99023.00
2023-03-03T18:50:49.685Z,99019.00
2023-03-03T18:53:29.242Z,99030.00
2023-03-03T18:56:01.072Z,99018.00
2023-03-03T18:58:41.305Z,99017.00
2023-03-03T19:01:11.437Z,99032.00
2023-03-03T19:04:07.337Z,99012.00
2023-03-03T19:06:37.519Z,99028.00
2023-03-03T19:09:12.262Z,99028.00
2023-03-03T19:11:52.144Z,99037.00
2023-03-03T19:14:31.233Z,99044.00
2023-03-03T19:17:24.210Z,99050.00
2023-03-03T19:20:14.752Z,99047.00
2023-03-03T19:22:56.188Z,99049.00
2023-03-03T19:25:34.208Z,99051.00
2023-03-03T19:28:26.891Z,99054.00
2023-03-03T19:31:16.265Z,99039.00
2023-03-03T19:34:07.227Z,99038.00
2023-03-03T19:37:02.300Z,99058.00
2023-03-03T19:39:49.353Z,99034.00
2023-03-03T19:42:50.444Z,99025.00
2023-03-03T19:46:01.198Z,99067.00
2023-03-03T19:48:43.378Z,99069.00
2023-03-03T19:51:36.401Z,99041.00
2023-03-03T19:54:48.813Z,99076.00
2023-03-03T19:57:46.406Z,99076.00
2023-03-03T20:00:44.275Z,99081.00
2023-03-03T20:03:29.078Z,99092.00
2023-03-03T20:06:17.364Z,99092.00
2023-03-03T20:09:22.095Z,99066.00
2023-03-03T20:12:07.228Z,99098.00
2023-03-03T20:15:12.410Z,99079.00
2023-03-03T20:18:08.544Z,99089.00
2023-03-03T20:21:08.146Z,99091.00
2023-03-03T20:23:58.275Z,99109.00
2023-03-03T20:26:30.026Z,99097.00
2023-03-03T20:29:22.312Z,99077.00
2023-03-03T20:32:37.400Z,99116.00
2023-03-03T20:35:57.382Z,99118.00
2023-03-03T20:38:40.299Z,99123.00
2023-03-03T20:41:39.300Z,99128.00
2023-03-03T20:44:59.912Z,99131.00
2023-03-03T20:47:51.326Z,99134.00
2023-03-03T20:50:38.329Z,99137.00
2023-03-03T20:53:37.273Z,99140.00
2023-03-03T20:56:51.352Z,99123.00
2023-03-03T21:00:04.880Z,99148.00
2023-03-03T21:03:12.262Z,99146.00
2023-03-03T21:06:05.213Z,99140.00
2023-03-03T21:08:57.184Z,99156.00
2023-03-03T21:11:37.375Z,99154.00
2023-03-03T21:14:22.582Z,99169.00
2023-03-03T21:16:57.420Z,99153.00
2023-03-03T21:19:39.332Z,99160.00
2023-03-03T21:22:13.287Z,99162.00
2023-03-03T21:24:53.998Z,99175.00
2023-03-03T21:27:36.372Z,99135.00
2023-03-03T21:30:12.927Z,99138.00
2023-03-03T21:32:54.393Z,99182.00
2023-03-03T21:35:22.099Z,99183.00
2023-03-03T21:38:00.332Z,99177.00
2023-03-03T21:40:37.218Z,99180.00
2023-03-03T21:43:04.269Z,99164.00
2023-03-03T21:45:37.377Z,99191.00
2023-03-03T21:48:11.249Z,99158.00
2023-03-03T21:50:38.276Z,99187.00
2023-03-03T21:53:11.365Z,99152.00
2023-03-03T21:55:45.303Z,99157.00
2023-03-03T21:58:12.375Z,99184.00
2023-03-03T22:00:46.364Z,99193.00
2023-03-03T22:03:13.490Z,99186.00
2023-03-03T22:05:47.334Z,99175.00
2023-03-03T22:08:21.344Z,99186.00
2023-03-03T22:10:50.014Z,99156.00
2023-03-03T22:13:24.347Z,99195.00
2023-03-03T22:15:51.653Z,99166.00
2023-03-03T22:18:25.413Z,99180.00
2023-03-03T22:20:52.361Z,99192.00
2023-03-03T22:23:26.309Z,99157.00
2023-03-03T22:25:53.301Z,99202.00
2023-03-03T22:28:26.316Z,99197.00
2023-03-03T22:31:00.281Z,99157.00
2023-03-03T22:33:33.335Z,99198.00
2023-03-03T22:36:00.406Z,99182.00
2023-03-03T22:38:34.273Z,99197.00
2023-03-03T22:41:08.334Z,99186.00
2023-03-03T22:43:35.282Z,99197.00
2023-03-03T22:46:08.299Z,99204.00
2023-03-03T22:48:35.334Z,99203.00
2023-03-03T22:51:09.296Z,99200.00
2023-03-03T22:53:42.301Z,99192.00
2023-03-03T22:56:09.345Z,99202.00
2023-03-03T22:58:43.334Z,99197.00
2023-03-03T23:01:16.392Z,99193.00
2023-03-03T23:03:43.403Z,99194.00
2023-03-03T23:06:10.437Z,99191.00
2023-03-03T23:08:44.327Z,99192.00
2023-03-03T23:11:11.308Z,99200.00
2023-03-03T23:13:45.414Z,99211.00
2023-03-03T23:16:12.645Z,99194.00
2023-03-03T23:18:46.340Z,99206.00
2023-03-03T23:21:20.322Z,99214.00
2023-03-03T23:23:47.415Z,99214.00
2023-03-03T23:26:21.380Z,99206.00
2023-03-03T23:28:48.409Z,99196.00
2023-03-03T23:31:22.409Z,99164.00
2023-03-03T23:33:49.440Z,99194.00
2023-03-03T23:36:23.337Z,99197.00
2023-03-03T23:38:57.338Z,99215.00
2023-03-03T23:41:24.467Z,99220.00
2023-03-03T23:43:51.529Z,99209.00
2023-03-03T23:46:25.421Z,99194.00
2023-03-03T23:48:52.423Z,99210.00
2023-03-03T23:51:26.290Z,99212.00
2023-03-03T23:53:53.208Z,99208.00
2023-03-03T23:56:26.380Z,99215.00
2023-03-03T23:58:53.297Z,99217.00
